Totowa Boro, New Jersey
Current Conditions -  °F | °C
As of 6:53 AM on Sunday 23 Nov 2014 (Local Time) from KCDW Reporting Station
Overcast Overcast  
Wind Chill: 40°   Ceiling: 12000
Heat Index: 40°   Visibility: 10mi
Dew Point: 20°   Wind: 3mph
Humidity: 45%   Direction: 220°SW
Pressure: 30.2"   Gusts: NA
Location:  40.904°N, 74.2218°W
Report Text: KCDW 231153Z AUTO 22003KT 10SM SCT090 OVC120 04/M07 A3020 RMK AO2 SLP233 T00441067 10050 20044 53008 TSNO
Loading
Personal Weather Stations






























Interactive Weather Map New forecast layout! Learn more

10-Day Weather Forecast

Advertisements
Track Severe Weather on mobile